createdAt,value
2022-07-27T00:01:14.315Z,99.90
2022-07-27T00:03:42.277Z,99.90
2022-07-27T00:06:09.853Z,99.90
2022-07-27T00:08:37.567Z,99.90
2022-07-27T00:11:05.055Z,99.90
2022-07-27T00:13:32.275Z,99.90
2022-07-27T00:15:59.523Z,99.90
2022-07-27T00:18:27.757Z,99.90
2022-07-27T00:20:54.813Z,99.90
2022-07-27T00:23:22.126Z,99.90
2022-07-27T00:25:49.154Z,99.90
2022-07-27T00:28:16.146Z,99.90
2022-07-27T00:30:43.470Z,99.90
2022-07-27T00:33:10.601Z,99.90
2022-07-27T00:35:44.175Z,99.90
2022-07-27T00:38:11.299Z,99.90
2022-07-27T00:40:38.449Z,99.90
2022-07-27T00:43:05.476Z,99.90
2022-07-27T00:45:33.006Z,99.90
2022-07-27T00:48:00.089Z,99.90
2022-07-27T00:50:27.240Z,99.90
2022-07-27T00:52:55.375Z,99.90
2022-07-27T00:55:22.690Z,99.90
2022-07-27T00:57:58.185Z,99.90
2022-07-27T01:00:28.398Z,99.90
2022-07-27T01:02:57.538Z,99.90
2022-07-27T01:05:34.301Z,99.90
2022-07-27T01:08:04.490Z,99.90
2022-07-27T01:10:31.933Z,99.90
2022-07-27T01:12:59.598Z,99.90
2022-07-27T01:15:27.103Z,99.90
2022-07-27T01:17:54.596Z,99.90
2022-07-27T01:20:21.804Z,99.90
2022-07-27T01:22:49.088Z,99.90
2022-07-27T01:25:16.073Z,99.90
2022-07-27T01:27:43.069Z,99.90
2022-07-27T01:30:30.412Z,99.90
2022-07-27T01:33:06.725Z,99.90
2022-07-27T01:35:34.672Z,99.90
2022-07-27T01:38:04.070Z,99.90
2022-07-27T01:40:31.543Z,99.90
2022-07-27T01:42:58.648Z,99.90
2022-07-27T01:45:26.017Z,99.90
2022-07-27T01:47:53.004Z,99.90
2022-07-27T01:50:20.249Z,99.90
2022-07-27T01:52:47.516Z,99.90
2022-07-27T01:55:14.652Z,99.90
2022-07-27T01:57:41.718Z,99.90
2022-07-27T02:00:13.091Z,99.90
2022-07-27T02:02:40.975Z,99.90
2022-07-27T02:05:11.953Z,99.90
2022-07-27T02:07:40.858Z,99.90
2022-07-27T02:10:09.212Z,99.90
2022-07-27T02:12:39.777Z,99.90
2022-07-27T02:15:19.351Z,99.90
2022-07-27T02:17:48.061Z,99.90
2022-07-27T02:20:17.963Z,99.90
2022-07-27T02:22:46.971Z,99.90
2022-07-27T02:25:15.645Z,99.90
2022-07-27T02:27:45.159Z,99.90
2022-07-27T02:30:13.525Z,99.90
2022-07-27T02:32:44.300Z,99.90
2022-07-27T02:35:18.538Z,99.90
2022-07-27T02:37:46.314Z,99.90
2022-07-27T02:40:13.529Z,99.90
2022-07-27T02:42:40.968Z,99.90
2022-07-27T02:45:08.499Z,99.90
2022-07-27T02:47:36.749Z,99.90
2022-07-27T02:50:04.517Z,99.90
2022-07-27T02:52:31.447Z,99.90
2022-07-27T02:54:58.617Z,99.90
2022-07-27T02:57:26.048Z,99.90
2022-07-27T02:59:53.250Z,99.90
2022-07-27T03:02:24.512Z,99.90
2022-07-27T03:04:51.790Z,99.90
2022-07-27T03:07:18.762Z,99.90
2022-07-27T03:09:52.329Z,99.90
2022-07-27T03:12:19.597Z,99.90
2022-07-27T03:14:48.459Z,99.90
2022-07-27T03:17:15.633Z,99.90
2022-07-27T03:19:42.742Z,99.90
2022-07-27T03:22:10.005Z,99.90
2022-07-27T03:24:37.120Z,99.90
2022-07-27T03:27:04.161Z,99.90
2022-07-27T03:29:31.632Z,99.90
2022-07-27T03:31:59.539Z,99.90
2022-07-27T03:34:26.883Z,99.90
2022-07-27T03:36:53.889Z,99.90
2022-07-27T03:39:21.334Z,99.90
2022-07-27T03:41:48.362Z,99.90
2022-07-27T03:44:15.499Z,99.90
2022-07-27T03:46:42.698Z,99.90
2022-07-27T03:49:14.576Z,99.90
2022-07-27T03:51:42.269Z,99.90
2022-07-27T03:54:09.646Z,99.90
2022-07-27T03:56:36.744Z,99.90
2022-07-27T03:59:03.925Z,99.90
2022-07-27T04:01:31.181Z,99.90
2022-07-27T04:03:58.339Z,99.90
2022-07-27T04:06:25.754Z,99.90
2022-07-27T04:08:57.504Z,99.90
2022-07-27T04:11:29.659Z,99.90
2022-07-27T04:13:56.749Z,99.90
2022-07-27T04:16:24.371Z,99.90
2022-07-27T04:18:53.480Z,99.90
2022-07-27T04:21:20.493Z,99.90
2022-07-27T04:23:47.787Z,99.90
2022-07-27T04:26:15.743Z,99.90
2022-07-27T04:28:42.936Z,99.90
2022-07-27T04:31:09.927Z,99.90
2022-07-27T04:33:37.366Z,99.90
2022-07-27T04:36:05.580Z,99.90
2022-07-27T04:38:32.894Z,99.90
2022-07-27T04:41:00.129Z,99.90
2022-07-27T04:43:29.463Z,99.90
2022-07-27T04:45:57.039Z,99.90
2022-07-27T04:48:24.537Z,99.90
2022-07-27T04:50:51.685Z,99.90
2022-07-27T04:53:18.853Z,99.90
2022-07-27T04:55:47.131Z,99.90
2022-07-27T04:58:15.320Z,99.90
2022-07-27T05:00:43.663Z,99.90
2022-07-27T05:03:11.054Z,99.90
2022-07-27T05:05:39.148Z,99.90
2022-07-27T05:08:07.296Z,99.90
2022-07-27T05:10:34.361Z,99.90
2022-07-27T05:13:01.804Z,99.90
2022-07-27T05:15:29.182Z,99.90
2022-07-27T05:18:16.078Z,99.90
2022-07-27T05:20:43.370Z,99.90
2022-07-27T05:23:11.241Z,99.90
2022-07-27T05:25:39.016Z,99.90
2022-07-27T05:28:11.253Z,99.90
2022-07-27T05:30:38.484Z,99.90
2022-07-27T05:33:05.838Z,99.90
2022-07-27T05:35:33.052Z,99.90
2022-07-27T05:38:00.382Z,99.90
2022-07-27T05:40:33.559Z,99.90
2022-07-27T05:43:00.578Z,99.90
2022-07-27T05:45:27.685Z,99.90
2022-07-27T05:47:56.282Z,99.90
2022-07-27T05:50:23.627Z,99.90
2022-07-27T05:52:50.938Z,99.90
2022-07-27T05:55:18.402Z,99.90
2022-07-27T05:57:45.744Z,99.90
2022-07-27T06:00:13.681Z,99.90
2022-07-27T06:02:41.443Z,99.90
2022-07-27T06:05:15.515Z,99.90
2022-07-27T06:08:06.533Z,99.90
2022-07-27T06:10:36.054Z,99.90
2022-07-27T06:13:05.515Z,99.90
2022-07-27T06:15:33.469Z,99.90
2022-07-27T06:18:00.975Z,99.90
2022-07-27T06:20:29.813Z,99.90
2022-07-27T06:23:07.944Z,99.90
2022-07-27T06:25:36.143Z,99.90
2022-07-27T06:28:06.642Z,99.90
2022-07-27T06:30:34.669Z,99.90
2022-07-27T06:33:06.751Z,99.90
2022-07-27T06:35:34.303Z,99.90
2022-07-27T06:38:03.945Z,99.90
2022-07-27T06:40:32.611Z,99.90
2022-07-27T06:43:00.355Z,99.90
2022-07-27T06:45:28.871Z,99.90
2022-07-27T06:47:55.971Z,99.90
2022-07-27T06:50:23.199Z,99.90
2022-07-27T06:52:50.597Z,99.90
2022-07-27T06:55:18.751Z,99.90
2022-07-27T06:57:47.273Z,99.90
2022-07-27T07:00:16.402Z,99.90
2022-07-27T07:02:53.998Z,99.90
2022-07-27T07:05:23.374Z,99.90
2022-07-27T07:07:50.598Z,99.90
2022-07-27T07:10:19.549Z,99.90
2022-07-27T07:12:48.151Z,99.90
2022-07-27T07:15:16.726Z,99.90
2022-07-27T07:17:46.209Z,99.90
2022-07-27T07:20:14.809Z,99.90
2022-07-27T07:22:42.069Z,99.90
2022-07-27T07:25:09.370Z,99.90
2022-07-27T07:27:36.359Z,99.90
2022-07-27T07:30:04.366Z,99.90
2022-07-27T07:32:33.608Z,99.90
2022-07-27T07:35:01.687Z,99.90
2022-07-27T07:37:33.613Z,99.90
2022-07-27T07:40:25.142Z,99.90
2022-07-27T07:42:55.184Z,99.90
2022-07-27T07:45:24.356Z,99.90
2022-07-27T07:47:52.425Z,99.90
2022-07-27T07:50:19.933Z,99.90
2022-07-27T07:52:49.716Z,99.90
2022-07-27T07:55:20.877Z,99.90
2022-07-27T07:57:49.028Z,99.90
2022-07-27T08:00:18.691Z,99.90
2022-07-27T08:02:53.540Z,99.90
2022-07-27T08:05:22.889Z,99.90
2022-07-27T08:07:53.623Z,99.90
2022-07-27T08:10:22.006Z,99.90
2022-07-27T08:12:54.237Z,99.90
2022-07-27T08:15:29.928Z,99.90
2022-07-27T08:18:09.364Z,99.90
2022-07-27T08:20:36.445Z,99.90
2022-07-27T08:23:05.561Z,99.90
2022-07-27T08:25:32.783Z,99.90
2022-07-27T08:28:00.323Z,99.90
2022-07-27T08:30:30.544Z,99.90
2022-07-27T08:33:02.353Z,99.90
2022-07-27T08:35:32.133Z,99.90
2022-07-27T08:38:00.238Z,99.90
2022-07-27T08:40:45.929Z,99.90
2022-07-27T08:43:25.514Z,99.90
2022-07-27T08:45:55.320Z,99.90
2022-07-27T08:48:25.219Z,99.90
2022-07-27T08:50:52.465Z,99.90
2022-07-27T08:53:22.155Z,99.90
2022-07-27T08:55:49.603Z,99.90
2022-07-27T08:58:17.401Z,99.90
2022-07-27T09:00:49.696Z,99.90
2022-07-27T09:03:20.873Z,99.90
2022-07-27T09:05:52.491Z,99.90
2022-07-27T09:08:24.938Z,99.90
2022-07-27T09:10:55.991Z,99.90
2022-07-27T09:13:28.596Z,99.90
2022-07-27T09:16:18.508Z,99.90
2022-07-27T09:18:48.161Z,99.90
2022-07-27T09:21:23.419Z,99.90
2022-07-27T09:24:23.476Z,99.90
2022-07-27T09:27:06.102Z,99.90
2022-07-27T09:29:37.225Z,99.90
2022-07-27T09:32:15.810Z,99.90
2022-07-27T09:34:44.051Z,99.90
2022-07-27T09:37:12.462Z,99.50
2022-07-27T09:39:39.622Z,98.80
2022-07-27T09:42:38.243Z,99.90
2022-07-27T09:45:02.052Z,99.90
2022-07-27T09:47:31.820Z,99.00
2022-07-27T09:50:20.345Z,98.60
2022-07-27T09:52:47.751Z,98.70
2022-07-27T09:55:19.478Z,98.40
2022-07-27T09:57:56.670Z,98.70
2022-07-27T10:00:25.015Z,97.90
2022-07-27T10:02:53.357Z,97.90
2022-07-27T10:05:24.375Z,97.40
2022-07-27T10:07:53.777Z,96.30
2022-07-27T10:10:22.767Z,97.60
2022-07-27T10:12:54.565Z,97.10
2022-07-27T10:15:24.279Z,96.90
2022-07-27T10:18:08.716Z,96.80
2022-07-27T10:20:39.776Z,95.20
2022-07-27T10:23:07.462Z,94.80
2022-07-27T10:25:37.386Z,95.40
2022-07-27T10:28:17.753Z,94.60
2022-07-27T10:30:49.296Z,95.60
2022-07-27T10:33:49.770Z,95.10
2022-07-27T10:36:23.970Z,96.20
2022-07-27T10:38:53.665Z,95.00
2022-07-27T10:41:27.595Z,95.60
2022-07-27T10:44:18.853Z,96.10
2022-07-27T10:46:52.028Z,96.50
2022-07-27T10:49:27.821Z,96.10
2022-07-27T10:52:00.866Z,96.50
2022-07-27T10:54:39.852Z,95.60
2022-07-27T10:57:12.996Z,96.10
2022-07-27T11:02:41.959Z,95.70
2022-07-27T11:05:53.801Z,95.70
2022-07-27T11:08:36.189Z,96.30
2022-07-27T11:10:49.041Z,95.80
2022-07-27T11:13:20.931Z,93.30
2022-07-27T11:15:59.795Z,94.70
2022-07-27T11:18:39.050Z,94.30
2022-07-27T11:21:28.500Z,93.40
2022-07-27T11:24:18.937Z,92.60
2022-07-27T11:26:50.665Z,94.00
2022-07-27T11:29:20.230Z,94.30
2022-07-27T11:31:56.036Z,93.80
2022-07-27T11:34:36.168Z,94.10
2022-07-27T11:37:11.872Z,94.70
2022-07-27T11:40:00.338Z,94.60
2022-07-27T11:42:39.168Z,94.10
2022-07-27T11:45:08.419Z,92.90
2022-07-27T11:47:37.040Z,92.50
2022-07-27T11:50:07.613Z,92.90
2022-07-27T11:52:35.285Z,93.40
2022-07-27T11:55:03.868Z,93.80
2022-07-27T11:57:33.108Z,93.90
2022-07-27T12:00:00.439Z,93.80
2022-07-27T12:02:28.750Z,94.30
2022-07-27T12:05:02.967Z,94.10
2022-07-27T12:07:32.456Z,95.20
2022-07-27T12:10:05.089Z,94.50
2022-07-27T12:12:34.710Z,93.10
2022-07-27T12:15:42.908Z,93.90
2022-07-27T12:18:01.342Z,94.70
2022-07-27T12:20:36.503Z,92.20
2022-07-27T12:23:09.022Z,92.60
2022-07-27T12:25:37.450Z,93.00
2022-07-27T12:28:05.964Z,93.60
2022-07-27T12:30:47.438Z,92.50
2022-07-27T12:33:40.033Z,93.20
2022-07-27T12:36:08.770Z,93.00
2022-07-27T12:38:48.860Z,93.30
2022-07-27T12:41:26.702Z,91.90
2022-07-27T12:44:17.281Z,91.70
2022-07-27T12:47:02.362Z,92.40
2022-07-27T12:49:40.859Z,91.60
2022-07-27T12:52:11.334Z,90.30
2022-07-27T12:54:39.030Z,90.40
2022-07-27T12:57:06.225Z,90.90
2022-07-27T12:59:33.211Z,91.80
2022-07-27T13:02:00.512Z,90.70
2022-07-27T13:04:27.805Z,90.80
2022-07-27T13:06:56.511Z,92.50
2022-07-27T13:09:23.598Z,93.50
2022-07-27T13:11:50.568Z,93.10
2022-07-27T13:14:17.846Z,92.40
2022-07-27T13:16:44.895Z,91.80
2022-07-27T13:19:15.356Z,92.20
2022-07-27T13:21:42.912Z,93.00
2022-07-27T13:24:11.457Z,92.40
2022-07-27T13:26:39.583Z,92.60
2022-07-27T13:29:07.003Z,92.60
2022-07-27T13:31:34.585Z,92.00
2022-07-27T13:34:01.809Z,91.10
2022-07-27T13:36:28.830Z,90.70
2022-07-27T13:38:56.717Z,91.40
2022-07-27T13:41:25.869Z,92.00
2022-07-27T13:43:53.161Z,92.20
2022-07-27T13:46:20.798Z,91.70
2022-07-27T13:48:47.913Z,91.50
2022-07-27T13:51:15.097Z,92.50
2022-07-27T13:53:42.270Z,91.10
2022-07-27T13:56:09.616Z,91.80
2022-07-27T13:58:40.981Z,91.10
2022-07-27T14:01:08.563Z,91.60
2022-07-27T14:03:37.530Z,90.60
2022-07-27T14:06:06.528Z,91.10
2022-07-27T14:08:35.571Z,91.60
2022-07-27T14:11:04.356Z,90.40
2022-07-27T14:13:32.887Z,90.60
2022-07-27T14:16:01.643Z,90.80
2022-07-27T14:18:32.409Z,90.50
2022-07-27T14:21:04.879Z,90.20
2022-07-27T14:23:33.338Z,89.50
2022-07-27T14:26:01.300Z,88.70
2022-07-27T14:28:30.250Z,90.80
2022-07-27T14:30:58.105Z,90.40
2022-07-27T14:33:33.970Z,89.30
2022-07-27T14:36:06.202Z,89.00
2022-07-27T14:38:35.212Z,87.70
2022-07-27T14:41:02.509Z,88.80
2022-07-27T14:43:31.661Z,82.50
2022-07-27T14:45:59.686Z,83.30
2022-07-27T14:48:55.515Z,83.50
2022-07-27T14:51:18.169Z,82.00
2022-07-27T14:53:46.216Z,83.10
2022-07-27T14:56:13.486Z,81.90
2022-07-27T14:58:41.016Z,82.80
2022-07-27T15:01:08.360Z,84.10
2022-07-27T15:03:35.885Z,83.10
2022-07-27T15:06:03.908Z,81.30
2022-07-27T15:08:31.290Z,81.70
2022-07-27T15:10:58.787Z,82.40
2022-07-27T15:13:25.695Z,81.70
2022-07-27T15:15:53.129Z,81.80
2022-07-27T15:18:21.182Z,83.10
2022-07-27T15:20:48.716Z,84.30
2022-07-27T15:23:18.503Z,84.90
2022-07-27T15:25:45.767Z,83.00
2022-07-27T15:28:16.649Z,84.00
2022-07-27T15:30:43.531Z,84.20
2022-07-27T15:33:10.683Z,83.80
2022-07-27T15:35:39.830Z,85.60
2022-07-27T15:38:07.083Z,84.50
2022-07-27T15:40:37.376Z,84.10
2022-07-27T15:43:11.260Z,83.90
2022-07-27T15:45:48.106Z,85.00
2022-07-27T15:48:17.742Z,85.10
2022-07-27T15:50:48.607Z,84.60
2022-07-27T15:53:18.820Z,84.80
2022-07-27T15:55:47.552Z,84.60
2022-07-27T15:58:18.073Z,83.80
2022-07-27T16:00:57.890Z,82.40
2022-07-27T16:03:26.036Z,82.90
2022-07-27T16:05:54.365Z,84.40
2022-07-27T16:08:21.335Z,83.90
2022-07-27T16:10:49.032Z,83.40
2022-07-27T16:13:16.624Z,83.10
2022-07-27T16:16:03.426Z,83.10
2022-07-27T16:18:35.344Z,82.60
2022-07-27T16:21:05.790Z,82.10
2022-07-27T16:23:33.317Z,83.30
2022-07-27T16:26:05.726Z,81.70
2022-07-27T16:28:46.359Z,80.20
2022-07-27T16:31:16.126Z,82.20
2022-07-27T16:33:45.454Z,79.80
2022-07-27T16:36:12.886Z,81.00
2022-07-27T16:38:49.780Z,81.60
2022-07-27T16:41:19.791Z,79.80
2022-07-27T16:43:47.975Z,79.10
2022-07-27T16:46:18.810Z,80.20
2022-07-27T16:48:47.228Z,80.30
2022-07-27T16:51:16.190Z,80.60
2022-07-27T16:53:46.024Z,81.90
2022-07-27T16:56:13.662Z,79.70
2022-07-27T16:58:41.086Z,81.50
2022-07-27T17:01:21.731Z,82.20
2022-07-27T17:03:53.218Z,81.20
2022-07-27T17:06:21.108Z,80.50
2022-07-27T17:08:48.609Z,79.70
2022-07-27T17:11:21.693Z,81.30
2022-07-27T17:13:51.162Z,81.60
2022-07-27T17:16:25.821Z,82.00
2022-07-27T17:18:53.251Z,81.90
2022-07-27T17:21:23.121Z,81.90
2022-07-27T17:23:53.361Z,80.40
2022-07-27T17:26:20.530Z,79.60
2022-07-27T17:28:51.973Z,79.10
2022-07-27T17:31:21.278Z,76.50
2022-07-27T17:33:49.166Z,77.80
2022-07-27T17:36:16.246Z,75.80
2022-07-27T17:38:49.325Z,74.70
2022-07-27T17:41:24.544Z,77.40
2022-07-27T17:43:54.823Z,76.20
2022-07-27T17:46:23.184Z,74.30
2022-07-27T17:48:52.331Z,73.50
2022-07-27T17:51:19.959Z,75.10
2022-07-27T17:53:47.746Z,73.80
2022-07-27T17:56:16.326Z,74.80
2022-07-27T17:58:43.384Z,73.90
2022-07-27T18:01:12.125Z,74.20
2022-07-27T18:03:40.332Z,71.60
2022-07-27T18:06:08.582Z,72.60
2022-07-27T18:08:36.643Z,72.50
2022-07-27T18:11:04.297Z,72.80
2022-07-27T18:13:39.272Z,71.40
2022-07-27T18:16:11.729Z,73.30
2022-07-27T18:18:43.278Z,74.30
2022-07-27T18:21:11.057Z,72.60
2022-07-27T18:23:39.946Z,70.70
2022-07-27T18:26:07.550Z,72.80
2022-07-27T18:28:39.345Z,72.30
2022-07-27T18:31:08.394Z,73.20
2022-07-27T18:33:36.459Z,73.50
2022-07-27T18:36:05.059Z,73.50
2022-07-27T18:38:33.314Z,74.20
2022-07-27T18:41:00.514Z,74.40
2022-07-27T18:43:27.575Z,74.20
2022-07-27T18:45:54.599Z,75.90
2022-07-27T18:48:22.576Z,76.80
2022-07-27T18:50:49.825Z,78.00
2022-07-27T18:53:17.269Z,78.60
2022-07-27T18:55:45.114Z,79.80
2022-07-27T18:58:12.158Z,78.70
2022-07-27T19:00:39.312Z,79.00
2022-07-27T19:03:09.316Z,79.90
2022-07-27T19:05:41.402Z,79.80
2022-07-27T19:08:12.852Z,80.90
2022-07-27T19:10:44.282Z,81.20
2022-07-27T19:13:12.415Z,80.80
2022-07-27T19:15:40.150Z,81.70
2022-07-27T19:18:09.363Z,82.10
2022-07-27T19:20:37.734Z,82.60
2022-07-27T19:23:07.903Z,82.60
2022-07-27T19:25:35.088Z,83.00
2022-07-27T19:28:03.067Z,83.70
2022-07-27T19:30:30.406Z,84.50
2022-07-27T19:32:58.685Z,84.80
2022-07-27T19:35:25.693Z,85.30
2022-07-27T19:37:52.977Z,85.70
2022-07-27T19:43:07.628Z,85.20
2022-07-27T19:45:36.704Z,85.40
2022-07-27T19:48:06.120Z,86.00
2022-07-27T19:50:33.563Z,86.60
2022-07-27T19:53:01.423Z,86.00
2022-07-27T19:55:29.681Z,86.90
2022-07-27T19:57:57.301Z,86.70
2022-07-27T20:00:25.017Z,87.60
2022-07-27T20:02:53.815Z,87.20
2022-07-27T20:05:21.048Z,87.00
2022-07-27T20:07:49.482Z,87.80
2022-07-27T20:10:17.053Z,88.70
2022-07-27T20:12:45.169Z,89.20
2022-07-27T20:15:13.352Z,89.10
2022-07-27T20:17:40.944Z,89.30
2022-07-27T20:20:12.765Z,89.40
2022-07-27T20:22:42.194Z,89.50
2022-07-27T20:25:11.213Z,89.60
2022-07-27T20:27:38.660Z,90.00
2022-07-27T20:30:07.240Z,90.10
2022-07-27T20:32:37.522Z,90.10
2022-07-27T20:35:05.256Z,90.10
2022-07-27T20:37:32.830Z,90.10
2022-07-27T20:40:00.048Z,90.10
2022-07-27T20:42:28.065Z,90.00
2022-07-27T20:44:55.362Z,90.10
2022-07-27T20:47:22.865Z,90.20
2022-07-27T20:49:51.119Z,90.30
2022-07-27T20:52:18.446Z,90.20
2022-07-27T20:54:46.089Z,90.40
2022-07-27T20:57:13.148Z,90.60
2022-07-27T20:59:40.218Z,90.80
2022-07-27T21:02:09.395Z,90.70
2022-07-27T21:04:36.507Z,90.80
2022-07-27T21:07:03.767Z,90.60
2022-07-27T21:09:32.027Z,90.70
2022-07-27T21:11:59.003Z,90.90
2022-07-27T21:14:26.077Z,90.60
2022-07-27T21:16:53.320Z,90.80
2022-07-27T21:19:22.595Z,90.80
2022-07-27T21:21:49.974Z,90.60
2022-07-27T21:24:18.324Z,90.80
2022-07-27T21:26:48.805Z,90.90
2022-07-27T21:29:16.962Z,91.00
2022-07-27T21:31:49.187Z,90.80
2022-07-27T21:34:19.516Z,91.30
2022-07-27T21:36:47.463Z,91.40
2022-07-27T21:39:14.950Z,91.50
2022-07-27T21:41:42.560Z,91.40
2022-07-27T21:44:10.323Z,91.40
2022-07-27T21:46:37.915Z,91.90
2022-07-27T21:49:05.217Z,91.80
2022-07-27T21:51:35.317Z,92.00
2022-07-27T21:54:02.561Z,92.30
2022-07-27T21:56:29.698Z,92.10
2022-07-27T21:58:56.807Z,92.40
2022-07-27T22:01:24.058Z,92.60
2022-07-27T22:03:51.752Z,92.70
2022-07-27T22:06:19.113Z,93.00
2022-07-27T22:08:47.941Z,93.00
2022-07-27T22:11:15.041Z,92.90
2022-07-27T22:13:42.007Z,92.70
2022-07-27T22:16:10.452Z,93.00
2022-07-27T22:18:37.640Z,93.10
2022-07-27T22:21:04.867Z,93.30
2022-07-27T22:23:32.095Z,93.20
2022-07-27T22:25:59.171Z,93.50
2022-07-27T22:28:27.040Z,93.40
2022-07-27T22:31:20.746Z,93.40
2022-07-27T22:33:44.520Z,93.50
2022-07-27T22:36:12.589Z,93.80
2022-07-27T22:38:42.873Z,93.80
2022-07-27T22:41:10.171Z,94.00
2022-07-27T22:43:37.513Z,94.00
2022-07-27T22:46:05.528Z,94.10
2022-07-27T22:48:33.191Z,94.50
2022-07-27T22:51:01.080Z,94.60
2022-07-27T22:53:28.063Z,94.60
2022-07-27T22:55:55.116Z,94.30
2022-07-27T22:58:22.545Z,94.40
2022-07-27T23:00:49.658Z,94.20
2022-07-27T23:03:17.203Z,94.40
2022-07-27T23:05:44.751Z,94.60
2022-07-27T23:08:13.498Z,94.70
2022-07-27T23:10:48.006Z,94.80
2022-07-27T23:13:16.246Z,95.10
2022-07-27T23:15:44.648Z,95.20
2022-07-27T23:18:12.930Z,95.50
2022-07-27T23:20:40.105Z,95.60
2022-07-27T23:23:15.503Z,95.60
2022-07-27T23:25:48.361Z,95.80
2022-07-27T23:28:16.332Z,95.70
2022-07-27T23:30:43.831Z,95.80
2022-07-27T23:33:11.345Z,96.00
2022-07-27T23:35:38.525Z,96.00
2022-07-27T23:38:05.545Z,96.00
2022-07-27T23:40:32.771Z,96.20
2022-07-27T23:43:00.363Z,96.20
2022-07-27T23:45:27.758Z,96.40
2022-07-27T23:47:55.199Z,96.40
2022-07-27T23:50:22.487Z,96.20
2022-07-27T23:52:53.137Z,96.40
2022-07-27T23:55:20.108Z,96.40
2022-07-27T23:57:47.223Z,96.60
